createdAt,value
2019-02-22T00:02:56.570Z,103307.87
2019-02-22T00:07:58.776Z,103308.80
2019-02-22T00:13:00.785Z,103312.20
2019-02-22T00:18:02.942Z,103309.06
2019-02-22T00:23:07.953Z,103316.62
2019-02-22T00:28:10.331Z,103319.13
2019-02-22T00:33:12.367Z,103320.62
2019-02-22T00:38:15.291Z,103314.33
2019-02-22T00:43:18.534Z,103320.12
2019-02-22T00:48:23.487Z,103322.64
2019-02-22T00:53:25.832Z,103319.58
2019-02-22T00:58:29.816Z,103329.80
2019-02-22T01:03:33.804Z,103331.07
2019-02-22T01:08:38.100Z,103339.14
2019-02-22T01:13:42.094Z,103345.30
2019-02-22T01:18:44.549Z,103355.69
2019-02-22T01:23:46.892Z,103356.09
2019-02-22T01:28:48.885Z,103370.95
2019-02-22T01:33:50.936Z,103366.72
2019-02-22T01:38:55.696Z,103360.69
2019-02-22T01:44:00.809Z,103374.72
2019-02-22T01:49:02.882Z,103379.12
2019-02-22T01:54:04.925Z,103379.47
2019-02-22T01:59:07.287Z,103388.52
2019-02-22T02:04:09.568Z,103385.17
2019-02-22T02:09:11.624Z,103386.70
2019-02-22T02:14:13.835Z,103387.02
2019-02-22T02:19:16.200Z,103383.55
2019-02-22T02:24:19.542Z,103388.83
2019-02-22T02:29:21.657Z,103387.09
2019-02-22T02:34:23.769Z,103396.09
2019-02-22T02:39:25.819Z,103393.22
2019-02-22T02:44:27.906Z,103409.97
2019-02-22T02:49:29.923Z,103412.84
2019-02-22T02:54:31.948Z,103412.83
2019-02-22T02:59:34.010Z,103419.19
2019-02-22T03:04:36.027Z,103428.45
2019-02-22T03:09:38.075Z,103426.86
2019-02-22T03:14:40.135Z,103425.48
2019-02-22T03:19:42.231Z,103419.91
2019-02-22T03:24:44.263Z,103422.72
2019-02-22T03:29:46.350Z,103423.65
2019-02-22T03:34:49.525Z,103422.72
2019-02-22T03:39:51.865Z,103424.52
2019-02-22T03:44:53.876Z,103420.31
2019-02-22T03:49:57.303Z,103430.00
2019-02-22T03:55:00.439Z,103435.88
2019-02-22T04:00:07.215Z,103437.91
2019-02-22T04:05:10.452Z,103441.91
2019-02-22T04:10:13.162Z,103449.80
2019-02-22T04:15:17.143Z,103462.73
2019-02-22T04:20:19.233Z,103454.56
2019-02-22T04:25:21.260Z,103462.73
2019-02-22T04:30:23.501Z,103459.20
2019-02-22T04:35:27.778Z,103467.50
2019-02-22T04:40:29.929Z,103477.18
2019-02-22T04:45:31.998Z,103475.18
2019-02-22T04:50:34.018Z,103493.69
2019-02-22T04:55:36.028Z,103481.83
2019-02-22T05:00:39.704Z,103486.84
2019-02-22T05:05:42.940Z,103490.84
2019-02-22T05:10:44.997Z,103491.50
2019-02-22T05:15:47.023Z,103503.39
2019-02-22T05:20:49.274Z,103517.91
2019-02-22T05:25:51.330Z,103519.22
2019-02-22T05:30:53.697Z,103535.52
2019-02-22T05:35:56.078Z,103539.78
2019-02-22T05:40:58.359Z,103548.41
2019-02-22T05:46:00.403Z,103554.35
2019-02-22T05:51:04.881Z,103548.05
2019-02-22T05:56:07.064Z,103550.45
2019-02-22T06:01:09.128Z,103553.13
2019-02-22T06:06:15.840Z,103553.91
2019-02-22T06:11:18.188Z,103566.88
2019-02-22T06:16:20.225Z,103590.83
2019-02-22T06:21:22.857Z,103594.81
2019-02-22T06:26:25.342Z,103600.42
2019-02-22T06:31:27.459Z,103609.86
2019-02-22T06:36:32.102Z,103616.05
2019-02-22T06:41:36.022Z,103619.80
2019-02-22T06:46:39.260Z,103621.69
2019-02-22T06:51:41.515Z,103619.48
2019-02-22T06:56:43.573Z,103625.68
2019-02-22T07:01:49.890Z,103632.39
2019-02-22T07:06:52.759Z,103629.84
2019-02-22T07:12:08.028Z,103640.17
2019-02-22T07:17:10.038Z,103645.67
2019-02-22T07:22:12.621Z,103650.30
2019-02-22T07:27:14.746Z,103652.50
2019-02-22T07:32:18.040Z,103652.06
2019-02-22T07:37:20.069Z,103672.34
2019-02-22T07:42:22.189Z,103675.93
2019-02-22T07:47:24.207Z,103691.61
2019-02-22T07:52:26.774Z,103693.97
2019-02-22T07:57:30.686Z,103702.92
2019-02-22T08:02:33.578Z,103701.00
2019-02-22T08:07:35.775Z,103721.66
2019-02-22T08:12:37.868Z,103738.92
2019-02-22T08:17:40.798Z,103739.13
2019-02-22T08:22:42.990Z,103743.42
2019-02-22T08:27:53.923Z,103738.97
2019-02-22T08:32:54.397Z,103746.14
2019-02-22T08:37:56.475Z,103758.44
2019-02-22T08:42:58.594Z,103764.15
2019-02-22T08:48:00.641Z,103767.78
2019-02-22T08:53:03.063Z,103765.89
2019-02-22T08:58:07.447Z,103767.84
2019-02-22T09:03:10.839Z,103768.09
2019-02-22T09:08:12.908Z,103768.81
2019-02-22T09:13:14.918Z,103779.62
2019-02-22T09:18:16.965Z,103771.63
2019-02-22T09:23:19.021Z,103776.97
2019-02-22T09:28:21.050Z,103793.17
2019-02-22T09:33:25.127Z,103796.37
2019-02-22T09:38:29.005Z,103812.36
2019-02-22T09:43:31.301Z,103812.97
2019-02-22T09:48:34.902Z,103815.55
2019-02-22T09:53:37.169Z,103812.70
2019-02-22T09:58:39.184Z,103810.88
2019-02-22T10:03:41.341Z,103799.02
2019-02-22T10:08:43.429Z,103817.55
2019-02-22T10:13:45.585Z,103814.43
2019-02-22T10:18:49.755Z,103824.73
2019-02-22T10:23:51.778Z,103823.40
2019-02-22T10:28:54.273Z,103823.40
2019-02-22T10:33:56.842Z,103822.97
2019-02-22T10:38:59.162Z,103816.41
2019-02-22T10:44:01.462Z,103816.19
2019-02-22T10:49:03.795Z,103816.90
2019-02-22T10:54:09.492Z,103830.30
2019-02-22T10:59:11.528Z,103833.81
2019-02-22T11:04:13.552Z,103833.59
2019-02-22T11:09:16.340Z,103831.84
2019-02-22T11:14:28.455Z,103836.77
2019-02-22T11:19:22.614Z,103833.86
2019-02-22T11:24:26.912Z,103833.86
2019-02-22T11:29:28.988Z,103850.71
2019-02-22T11:34:31.114Z,103842.53
2019-02-22T11:39:33.131Z,103829.06
2019-02-22T11:44:43.030Z,103825.78
2019-02-22T11:49:48.039Z,103825.25
2019-02-22T11:54:53.541Z,103817.66
2019-02-22T11:59:55.833Z,103813.09
2019-02-22T12:05:06.871Z,103808.87
2019-02-22T12:10:08.953Z,103711.84
2019-02-22T12:15:18.764Z,103798.81
2019-02-22T12:20:20.935Z,103809.55
2019-02-22T12:25:22.971Z,103816.06
2019-02-22T12:30:28.057Z,103824.23
2019-02-22T12:35:32.412Z,103832.83
2019-02-22T12:40:34.418Z,103840.27
2019-02-22T12:45:36.433Z,103826.59
2019-02-22T12:50:40.330Z,103820.91
2019-02-22T12:55:42.411Z,103823.15
2019-02-22T13:00:46.296Z,103823.15
2019-02-22T13:05:48.318Z,103835.20
2019-02-22T13:10:50.511Z,103846.41
2019-02-22T13:15:54.947Z,103852.99
2019-02-22T13:20:58.270Z,103854.86
2019-02-22T13:26:00.271Z,103849.70
2019-02-22T13:31:02.508Z,103853.17
2019-02-22T13:36:06.533Z,103861.24
2019-02-22T13:41:08.668Z,103860.80
2019-02-22T13:46:10.743Z,103860.80
2019-02-22T13:51:12.835Z,103873.28
2019-02-22T13:56:15.140Z,103864.75
2019-02-22T14:01:20.150Z,103869.98
2019-02-22T14:06:22.158Z,103877.30
2019-02-22T14:11:24.431Z,103875.62
2019-02-22T14:16:26.487Z,103883.30
2019-02-22T14:21:28.882Z,103883.37
2019-02-22T14:26:33.640Z,103880.50
2019-02-22T14:31:37.312Z,103875.75
2019-02-22T14:36:39.492Z,103860.97
2019-02-22T14:41:41.516Z,103858.35
2019-02-22T14:46:48.064Z,103860.85
2019-02-22T14:51:51.974Z,103869.80
2019-02-22T14:56:54.002Z,103872.55
2019-02-22T15:02:00.801Z,103860.88
2019-02-22T15:07:04.942Z,103857.00
2019-02-22T15:12:08.934Z,103869.52
2019-02-22T15:17:29.186Z,103875.86
2019-02-22T15:22:31.298Z,103886.49
2019-02-22T15:27:33.306Z,103884.63
2019-02-22T15:32:41.206Z,103883.42
2019-02-22T15:37:43.625Z,103892.12
2019-02-22T15:42:48.461Z,103896.61
2019-02-22T15:47:52.047Z,103890.11
2019-02-22T15:52:56.465Z,103899.42
2019-02-22T15:57:58.613Z,103886.14
2019-02-22T16:03:01.800Z,103883.47
2019-02-22T16:08:04.035Z,103890.20
2019-02-22T16:13:06.361Z,103900.63
2019-02-22T16:18:10.662Z,103916.47
2019-02-22T16:23:14.070Z,103921.29
2019-02-22T16:28:16.261Z,103914.06
2019-02-22T16:33:23.821Z,103924.53
2019-02-22T16:38:25.867Z,103931.58
2019-02-22T16:43:28.890Z,103933.31
2019-02-22T16:48:34.918Z,103918.80
2019-02-22T16:53:37.244Z,103899.62
2019-02-22T16:58:40.759Z,103915.96
2019-02-22T17:03:48.071Z,103933.52
2019-02-22T17:08:50.059Z,103928.72
2019-02-22T17:13:53.526Z,103957.38
2019-02-22T17:18:56.894Z,103957.38
2019-02-22T17:23:59.294Z,103969.81
2019-02-22T17:29:05.389Z,103969.81
2019-02-22T17:34:08.860Z,103957.18
2019-02-22T17:39:13.533Z,103963.92
2019-02-22T17:44:15.810Z,103964.95
2019-02-22T17:49:36.857Z,103969.91
2019-02-22T17:54:42.189Z,103969.93
2019-02-22T17:59:44.250Z,103977.37
2019-02-22T18:04:46.922Z,103978.86
2019-02-22T18:09:49.006Z,103961.09
2019-02-22T18:14:51.696Z,103963.30
2019-02-22T18:19:56.823Z,103959.39
2019-02-22T18:24:58.844Z,103962.06
2019-02-22T18:30:01.013Z,103960.94
2019-02-22T18:35:06.645Z,103958.58
2019-02-22T18:40:12.830Z,103955.45
2019-02-22T18:45:19.504Z,103943.09
2019-02-22T18:50:25.190Z,103943.09
2019-02-22T18:55:27.267Z,103960.30
2019-02-22T19:00:29.538Z,103956.13
2019-02-22T19:05:37.638Z,103967.94
2019-02-22T19:10:39.679Z,103985.39
2019-02-22T19:15:42.350Z,103985.11
2019-02-22T19:20:44.375Z,103988.73
2019-02-22T19:25:46.467Z,103984.66
2019-02-22T19:30:48.719Z,103979.05
2019-02-22T19:35:50.996Z,103992.31
2019-02-22T19:40:53.018Z,103989.58
2019-02-22T19:46:01.163Z,103987.38
2019-02-22T19:51:05.193Z,103994.16
2019-02-22T19:56:09.144Z,103991.17
2019-02-22T20:01:11.743Z,103990.41
2019-02-22T20:06:14.028Z,103995.98
2019-02-22T20:11:16.100Z,103986.84
2019-02-22T20:16:20.917Z,103994.48
2019-02-22T20:21:23.244Z,103998.21
2019-02-22T20:26:25.275Z,103995.21
2019-02-22T20:31:29.959Z,103991.36
2019-02-22T20:36:32.022Z,103999.20
2019-02-22T20:41:34.062Z,103988.56
2019-02-22T20:46:36.548Z,103993.70
2019-02-22T20:51:38.633Z,104002.44
2019-02-22T20:56:43.134Z,104012.30
2019-02-22T21:01:47.101Z,104021.47
2019-02-22T21:06:51.769Z,104016.47
2019-02-22T21:11:58.440Z,104014.55
2019-02-22T21:17:02.572Z,104024.47
2019-02-22T21:22:09.966Z,104011.97
2019-02-22T21:27:12.158Z,104004.94
2019-02-22T21:32:14.330Z,104007.30
2019-02-22T21:37:16.986Z,104005.52
2019-02-22T21:42:20.356Z,104009.63
2019-02-22T21:47:22.617Z,104013.43
2019-02-22T21:52:25.380Z,104010.73
2019-02-22T21:57:28.095Z,104012.12
2019-02-22T22:02:32.511Z,104010.29
2019-02-22T22:07:37.272Z,104013.56
2019-02-22T22:12:43.326Z,104019.00
2019-02-22T22:17:46.429Z,104019.37
2019-02-22T22:22:48.663Z,104020.52
2019-02-22T22:27:50.746Z,104015.63
2019-02-22T22:32:52.896Z,104016.77
2019-02-22T22:37:55.041Z,104011.34
2019-02-22T22:42:57.116Z,104013.58
2019-02-22T22:47:59.113Z,104007.02
2019-02-22T22:53:01.415Z,104017.73
2019-02-22T22:58:05.889Z,104024.59
2019-02-22T23:03:08.161Z,104024.28
2019-02-22T23:08:11.516Z,104022.31
2019-02-22T23:13:23.644Z,104015.92
2019-02-22T23:18:27.560Z,104015.75
2019-02-22T23:23:30.516Z,104011.66
2019-02-22T23:28:32.568Z,104005.66
2019-02-22T23:33:39.920Z,104010.13
2019-02-22T23:38:43.840Z,104013.79
2019-02-22T23:43:46.140Z,104004.79
2019-02-22T23:48:50.811Z,103999.94
2019-02-22T23:53:56.573Z,104001.92
2019-02-22T23:59:00.158Z,104003.81
